Csl Virginia — 5BEG4 — position and weather

sailwx.info

Track history (hours):
 
Tides and Currents Weather Stations Pressure Air Temp Water Temp Dewpoint Dewpoint Depression Visibility Wind Speed Wind Dir Waves Ship Positions

Csl Virginia

Last reported at 2018-Apr-20 13:37 UTC. Time now 2018-Apr-25 22:09 UTC.
Position N 26°04' W 079°32'.

Length 294 m; draft 11.9 m.

Type: Cargo ship. MMSI: 212416000.

Date/timePositionNaut miles runAvg speedWind from/ knotsBaromVisibWave heightAir tempDewpointWater temp
2018-Apr-20 13:37N 26°04' W 079°32'218.5
2018-Apr-20 13:30N 26°03' W 079°34'917.3
2018-Apr-20 12:59N 25°59' W 079°43'817.5
2018-Apr-20 12:30N 25°54' W 079°51'917.7
2018-Apr-20 12:00N 25°49' W 079°59'714.1
2018-Apr-20 11:30N 25°46' W 080°05'3 5.8
2018-Apr-20 11:00N 25°46' W 080°09'0 0.7
2018-Apr-20 10:30N 25°46' W 080°09'0 0.0
2018-Apr-20 10:00N 25°46' W 080°09'0 0.0
2018-Apr-20 09:27N 25°46' W 080°09'0 0.0
2018-Apr-20 09:00N 25°46' W 080°09'0 0.0
2018-Apr-20 08:30N 25°46' W 080°09'0 0.0
2018-Apr-20 08:00N 25°46' W 080°09'0 0.0
2018-Apr-20 07:30N 25°46' W 080°09'0 0.0
2018-Apr-20 07:00N 25°46' W 080°09'0 0.0
2018-Apr-20 06:30N 25°46' W 080°09'0 0.0
2018-Apr-20 05:57N 25°46' W 080°09'0 0.0
2018-Apr-20 05:30N 25°46' W 080°09'0 0.0
2018-Apr-20 05:00N 25°46' W 080°09'0 0.0
2018-Apr-20 04:30N 25°46' W 080°09'0 0.0
2018-Apr-20 04:00N 25°46' W 080°09'0 0.0
2018-Apr-20 03:30N 25°46' W 080°09'0 0.0
2018-Apr-20 03:00N 25°46' W 080°09'0 0.0
2018-Apr-20 02:30N 25°46' W 080°09'0 0.0
2018-Apr-20 02:00N 25°46' W 080°09'0 0.0
2018-Apr-20 01:30N 25°46' W 080°09'0 0.0
2018-Apr-20 01:00N 25°46' W 080°09'0 0.0
2018-Apr-20 00:30N 25°46' W 080°09'0 0.0
2018-Apr-20 00:00N 25°46' W 080°09'0 0.0
2018-Apr-19 23:30N 25°46' W 080°09'0 0.0
2018-Apr-19 23:00N 25°46' W 080°09'0 0.0
2018-Apr-19 22:30N 25°46' W 080°09'0 0.0
2018-Apr-19 22:00N 25°46' W 080°09'0 0.0
2018-Apr-19 21:30N 25°46' W 080°09'0 0.0
2018-Apr-19 21:00N 25°46' W 080°09'0 0.0
2018-Apr-19 20:30N 25°46' W 080°09'0 0.0
2018-Apr-19 20:00N 25°46' W 080°09'0 0.0
2018-Apr-19 19:30N 25°46' W 080°09'0 0.0
2018-Apr-19 19:00N 25°46' W 080°09'0 0.0
2018-Apr-19 18:27N 25°46' W 080°09'0 0.0
2018-Apr-19 18:00N 25°46' W 080°09'1 1.4
2018-Apr-19 17:30N 25°46' W 080°08'4 8.2
2018-Apr-19 17:00N 25°47' W 080°04'3 6.4
2018-Apr-19 16:30N 25°49' W 080°01'714.0
2018-Apr-19 16:00N 25°55' W 079°57'714.3
2018-Apr-19 15:31N 26°02' W 079°57'714.6
2018-Apr-19 15:00N 26°09' W 079°56'714.8
2018-Apr-19 14:30N 26°17' W 079°55'714.9
2018-Apr-19 14:00N 26°24' W 079°54'714.6
2018-Apr-19 13:31N 26°31' W 079°53'1614.6
2018-Apr-19 12:27N 26°47' W 079°52'614.6
2018-Apr-19 12:01N 26°53' W 079°51'714.5
2018-Apr-19 11:31N 27°00' W 079°50'815.0
2018-Apr-19 11:00N 27°08' W 079°51'1715.2
2018-Apr-19 09:53N 27°25' W 079°54'715.2
2018-Apr-19 09:26N 27°32' W 079°55'915.7
2018-Apr-19 08:51N 27°41' W 079°56'516.2
2018-Apr-19 08:30N 27°46' W 079°57'6315.9
2018-Apr-19 04:32N 28°48' W 080°09'216.7
2018-Apr-19 04:24N 28°51' W 080°09'716.8
2018-Apr-19 03:58N 28°58' W 080°10'817.1
2018-Apr-19 03:30N 29°06' W 080°11'1016.9
2018-Apr-19 02:55N 29°15' W 080°12'716.4
2018-Apr-19 02:30N 29°22' W 080°13'2416.4
2018-Apr-19 01:02N 29°46' W 080°15'516.2
2018-Apr-19 00:45N 29°51' W 080°16'416.1
2018-Apr-19 00:31N 29°55' W 080°16'816.1
2018-Apr-19 00:01N 30°03' W 080°17'7416.0
2018-Apr-18 19:21N 31°17' W 080°22'616.8
2018-Apr-18 19:00N 31°23' W 080°21'816.9
2018-Apr-18 18:30N 31°31' W 080°20'816.8
2018-Apr-18 18:00N 31°39' W 080°17'816.8
2018-Apr-18 17:30N 31°47' W 080°14'815.3
2018-Apr-18 16:59N 31°55' W 080°16'1012.1
2018-Apr-18 16:10N 31°57' W 080°28'2 9.5
2018-Apr-18 15:58N 31°57' W 080°30'4 9.4
2018-Apr-18 15:30N 31°57' W 080°35'5 9.2
2018-Apr-18 15:00N 31°57' W 080°41'510.8
2018-Apr-18 14:30N 31°59' W 080°46'612.0
2018-Apr-18 14:00N 32°02' W 080°53'5 9.2
2018-Apr-18 13:30N 32°04' W 080°57'3 6.0
2018-Apr-18 13:00N 32°06' W 081°00'3 6.6
2018-Apr-18 12:30N 32°05' W 081°04'3 5.1
2018-Apr-18 12:00N 32°06' W 081°07'2 3.8
2018-Apr-18 11:27N 32°08' W 081°08'0 0.0
2018-Apr-18 10:57N 32°08' W 081°08'0 0.0
2018-Apr-18 10:27N 32°08' W 081°08'0 0.0
2018-Apr-18 09:57N 32°08' W 081°08'0 0.0
2018-Apr-18 09:21N 32°08' W 081°08'0 0.0
2018-Apr-18 08:57N 32°08' W 081°08'0 0.0
2018-Apr-18 08:27N 32°08' W 081°08'0 0.0
2018-Apr-18 07:57N 32°08' W 081°08'0 0.0
2018-Apr-18 07:27N 32°08' W 081°08'0 0.0
2018-Apr-18 06:57N 32°08' W 081°08'0 0.0
2018-Apr-18 06:27N 32°08' W 081°08'0 0.0
2018-Apr-18 05:51N 32°08' W 081°08'0 0.0
2018-Apr-18 05:21N 32°08' W 081°08'0 0.0
2018-Apr-18 04:57N 32°08' W 081°08'0 0.0
2018-Apr-18 04:27N 32°08' W 081°08'0 0.0
2018-Apr-18 03:57N 32°08' W 081°08'0 0.0
2018-Apr-18 03:27N 32°08' W 081°08'0 0.0
2018-Apr-18 02:57N 32°08' W 081°08'0 0.0
2018-Apr-18 02:27N 32°08' W 081°08'0 0.0
2018-Apr-18 01:57N 32°08' W 081°08'0 0.0
2018-Apr-18 01:27N 32°08' W 081°08'0 0.0
2018-Apr-18 00:57N 32°08' W 081°08'0 0.0
2018-Apr-18 00:27N 32°08' W 081°08'0 0.0
2018-Apr-17 23:57N 32°08' W 081°08'0 0.0
2018-Apr-17 23:27N 32°08' W 081°08'0 0.0
2018-Apr-17 22:57N 32°08' W 081°08'0 0.0
2018-Apr-17 22:21N 32°08' W 081°08'0 0.0
2018-Apr-17 21:57N 32°08' W 081°08'0 0.0
2018-Apr-17 21:27N 32°08' W 081°08'0 0.0
2018-Apr-17 20:57N 32°08' W 081°08'0 0.0
2018-Apr-17 20:27N 32°08' W 081°08'0 0.0
2018-Apr-17 19:57N 32°08' W 081°08'0 0.0
2018-Apr-17 19:27N 32°08' W 081°08'0 0.0
2018-Apr-17 18:51N 32°08' W 081°08'0 0.0
2018-Apr-17 18:27N 32°08' W 081°08'0 0.0
2018-Apr-17 17:45N 32°08' W 081°08'0 0.0
2018-Apr-17 17:27N 32°08' W 081°08'0 0.0
2018-Apr-17 16:57N 32°08' W 081°08'0 0.0
2018-Apr-17 16:27N 32°08' W 081°08'0 0.9
2018-Apr-17 16:01N 32°08' W 081°08'2 3.5
2018-Apr-17 15:30N 32°06' W 081°07'2 5.0
2018-Apr-17 15:00N 32°05' W 081°05'3 6.2
2018-Apr-17 14:30N 32°05' W 081°01'4 8.2
2018-Apr-17 14:00N 32°04' W 080°57'510.4
2018-Apr-17 13:30N 32°02' W 080°51'713.6
2018-Apr-17 13:00N 31°58' W 080°44'510.1
2018-Apr-17 12:30N 31°57' W 080°39'3 5.3
2018-Apr-17 12:00N 31°56' W 080°36'3 5.2
2018-Apr-17 11:30N 31°57' W 080°33'3 6.7
2018-Apr-17 11:00N 31°58' W 080°29'4 7.3
2018-Apr-17 10:30N 31°58' W 080°25'37011.0
2018-Apr-16 00:59N 36°52' W 075°53'5 9.8
2018-Apr-16 00:30N 36°55' W 075°57'4 8.7
2018-Apr-16 00:00N 36°57' W 076°02'714.7
2018-Apr-15 23:31N 36°59' W 076°10'812.9
2018-Apr-15 22:54N 36°58' W 076°20'4 8.8
2018-Apr-15 22:30N 36°55' W 076°20'3 5.9
2018-Apr-15 22:00N 36°52' W 076°19'0 0.7
2018-Apr-15 21:29N 36°51' W 076°19'0 0.0
2018-Apr-15 20:59N 36°51' W 076°19'0 0.0
2018-Apr-15 20:29N 36°51' W 076°19'0 0.0
2018-Apr-15 19:59N 36°51' W 076°19'0 0.0
2018-Apr-15 19:29N 36°51' W 076°19'0 0.0
2018-Apr-15 18:59N 36°51' W 076°19'0 0.0
2018-Apr-15 18:29N 36°51' W 076°19'0 0.0
2018-Apr-15 17:59N 36°51' W 076°19'0 0.0
2018-Apr-15 17:29N 36°51' W 076°19'0 0.0
2018-Apr-15 16:53N 36°51' W 076°19'0 0.0
2018-Apr-15 16:26N 36°51' W 076°19'0 0.0
2018-Apr-15 15:59N 36°51' W 076°19'0 0.0
2018-Apr-15 15:29N 36°51' W 076°19'0 0.0
2018-Apr-15 14:59N 36°51' W 076°19'0 0.0
2018-Apr-15 14:26N 36°51' W 076°19'0 0.0
2018-Apr-15 13:59N 36°51' W 076°19'0 0.0
2018-Apr-15 13:29N 36°51' W 076°19'0 0.0
2018-Apr-15 12:59N 36°51' W 076°19'0 0.0
2018-Apr-15 12:29N 36°51' W 076°19'0 0.0
2018-Apr-15 11:56N 36°51' W 076°19'0 0.0
2018-Apr-15 11:29N 36°51' W 076°19'0 0.0
2018-Apr-15 10:59N 36°51' W 076°19'0 0.0
2018-Apr-15 10:29N 36°51' W 076°19'0 0.0
2018-Apr-15 10:00N 36°51' W 076°19'0 0.7
2018-Apr-15 09:30N 36°52' W 076°19'3 6.2
2018-Apr-15 09:00N 36°55' W 076°20'5 9.3
2018-Apr-15 08:27N 36°60' W 076°18'714.9
2018-Apr-15 07:58N 36°59' W 076°09'715.8
2018-Apr-15 07:31N 36°57' W 076°01'4 8.6
2018-Apr-15 07:01N 36°56' W 075°55'3 6.1
2018-Apr-15 06:31N 36°54' W 075°53'3 6.8
2018-Apr-15 06:01N 36°52' W 075°49'18713.4
2018-Apr-14 16:06N 39°35' W 073°52'519.3
2018-Apr-14 15:49N 39°40' W 073°52'819.3
2018-Apr-14 15:25N 39°48' W 073°52'3513.5
2018-Apr-14 12:51N 40°22' W 073°49'3 9.7
2018-Apr-14 12:30N 40°26' W 073°49'4 8.0
2018-Apr-14 12:00N 40°28' W 073°53'510.2
2018-Apr-14 11:30N 40°31' W 073°59'612.1
2018-Apr-14 11:00N 40°36' W 074°03'4 7.4
2018-Apr-14 10:30N 40°39' W 074°06'2 4.5
2018-Apr-14 10:00N 40°39' W 074°09'2 3.3
2018-Apr-14 09:30N 40°41' W 074°09'0 0.1
2018-Apr-14 09:00N 40°41' W 074°09'0 0.0
2018-Apr-14 08:30N 40°41' W 074°09'0 0.0
2018-Apr-14 08:00N 40°41' W 074°09'0 0.0
2018-Apr-14 07:30N 40°41' W 074°09'0 0.0
2018-Apr-14 07:00N 40°41' W 074°09'0 0.0
2018-Apr-14 06:30N 40°41' W 074°09'0 0.0
2018-Apr-14 06:00N 40°41' W 074°09'0 0.0
2018-Apr-14 05:30N 40°41' W 074°09'0 0.0
2018-Apr-14 05:00N 40°41' W 074°09'0 0.0
2018-Apr-14 04:30N 40°41' W 074°09'0 0.0
2018-Apr-14 04:00N 40°41' W 074°09'0 0.0
2018-Apr-14 03:30N 40°41' W 074°09'0 0.0
2018-Apr-14 03:00N 40°41' W 074°09'0 0.0
2018-Apr-14 02:30N 40°41' W 074°09'0 0.0
2018-Apr-14 02:00N 40°41' W 074°09'0 0.0
2018-Apr-14 01:30N 40°41' W 074°09'0 0.0
2018-Apr-14 01:00N 40°41' W 074°09'0 0.0
2018-Apr-14 00:30N 40°41' W 074°09'0 0.0
2018-Apr-14 00:00N 40°41' W 074°09'0 0.0
2018-Apr-13 23:30N 40°41' W 074°09'0 0.0
2018-Apr-13 23:00N 40°41' W 074°09'0 0.0
2018-Apr-13 22:30N 40°41' W 074°09'0 0.0
2018-Apr-13 22:00N 40°41' W 074°09'0 0.0
2018-Apr-13 21:30N 40°41' W 074°09'0 0.0
2018-Apr-13 21:00N 40°41' W 074°09'0 0.0
2018-Apr-13 20:30N 40°41' W 074°09'0 0.0
2018-Apr-13 20:00N 40°41' W 074°09'0 0.0
2018-Apr-13 19:30N 40°41' W 074°09'0 0.0
2018-Apr-13 18:57N 40°41' W 074°09'0 0.0
2018-Apr-13 18:30N 40°41' W 074°09'0 0.0
2018-Apr-13 18:00N 40°41' W 074°09'0 0.0
2018-Apr-13 17:30N 40°41' W 074°09'0 0.0
2018-Apr-13 17:00N 40°41' W 074°09'0 0.0
2018-Apr-13 16:30N 40°41' W 074°09'0 0.0
2018-Apr-13 16:00N 40°41' W 074°09'0 0.0
2018-Apr-13 15:30N 40°41' W 074°09'0 0.0
2018-Apr-13 15:00N 40°41' W 074°09'0 0.0
2018-Apr-13 14:30N 40°41' W 074°09'0 0.0
2018-Apr-13 14:00N 40°41' W 074°09'0 0.0
2018-Apr-13 13:30N 40°41' W 074°09'0 0.0
2018-Apr-13 13:00N 40°41' W 074°09'0 0.0
2018-Apr-13 12:30N 40°41' W 074°09'0 0.0
2018-Apr-13 12:00N 40°41' W 074°09'0 0.0
2018-Apr-13 11:30N 40°41' W 074°09'0 0.0
2018-Apr-13 11:00N 40°41' W 074°09'0 0.0
2018-Apr-13 10:30N 40°41' W 074°09'0 0.0
2018-Apr-13 10:00N 40°41' W 074°09'1 1.3
2018-Apr-13 09:30N 40°40' W 074°08'2 3.5
2018-Apr-13 09:00N 40°39' W 074°07'3 6.4
2018-Apr-13 08:30N 40°38' W 074°03'5 9.1
2018-Apr-13 08:01N 40°33' W 074°02'611.6
2018-Apr-13 07:30N 40°30' W 073°56'5 9.5
2018-Apr-13 07:00N 40°28' W 073°50'3 6.9
2018-Apr-13 06:30N 40°27' W 073°45'5 9.4
2018-Apr-13 06:00N 40°28' W 073°39'5 9.5
2018-Apr-13 05:29N 40°28' W 073°33'4 9.2
2018-Apr-13 05:00N 40°28' W 073°27'  
Track history (hours):
 
Tides and Currents Weather Stations Pressure Air Temp Water Temp Dewpoint Dewpoint Depression Visibility Wind Speed Wind Dir Waves Ship Positions

Csl Virginia

Last reported at 2018-Apr-20 13:37 UTC. Time now 2018-Apr-25 22:09 UTC.
Position N 26°04' W 079°32'.

Length 294 m; draft 11.9 m.

Type: Cargo ship. MMSI: 212416000.

Date/timePositionNaut miles runAvg speedWind from/ knotsBaromVisibWave heightAir tempDewpointWater temp
2018-Apr-20 13:37N 26°04' W 079°32'218.5
2018-Apr-20 13:30N 26°03' W 079°34'917.3
2018-Apr-20 12:59N 25°59' W 079°43'817.5
2018-Apr-20 12:30N 25°54' W 079°51'917.7
2018-Apr-20 12:00N 25°49' W 079°59'714.1
2018-Apr-20 11:30N 25°46' W 080°05'3 5.8
2018-Apr-20 11:00N 25°46' W 080°09'0 0.7
2018-Apr-20 10:30N 25°46' W 080°09'0 0.0
2018-Apr-20 10:00N 25°46' W 080°09'0 0.0
2018-Apr-20 09:27N 25°46' W 080°09'0 0.0
2018-Apr-20 09:00N 25°46' W 080°09'0 0.0
2018-Apr-20 08:30N 25°46' W 080°09'0 0.0
2018-Apr-20 08:00N 25°46' W 080°09'0 0.0
2018-Apr-20 07:30N 25°46' W 080°09'0 0.0
2018-Apr-20 07:00N 25°46' W 080°09'0 0.0
2018-Apr-20 06:30N 25°46' W 080°09'0 0.0
2018-Apr-20 05:57N 25°46' W 080°09'0 0.0
2018-Apr-20 05:30N 25°46' W 080°09'0 0.0
2018-Apr-20 05:00N 25°46' W 080°09'0 0.0
2018-Apr-20 04:30N 25°46' W 080°09'0 0.0
2018-Apr-20 04:00N 25°46' W 080°09'0 0.0
2018-Apr-20 03:30N 25°46' W 080°09'0 0.0
2018-Apr-20 03:00N 25°46' W 080°09'0 0.0
2018-Apr-20 02:30N 25°46' W 080°09'0 0.0
2018-Apr-20 02:00N 25°46' W 080°09'0 0.0
2018-Apr-20 01:30N 25°46' W 080°09'0 0.0
2018-Apr-20 01:00N 25°46' W 080°09'0 0.0
2018-Apr-20 00:30N 25°46' W 080°09'0 0.0
2018-Apr-20 00:00N 25°46' W 080°09'0 0.0
2018-Apr-19 23:30N 25°46' W 080°09'0 0.0
2018-Apr-19 23:00N 25°46' W 080°09'0 0.0
2018-Apr-19 22:30N 25°46' W 080°09'0 0.0
2018-Apr-19 22:00N 25°46' W 080°09'0 0.0
2018-Apr-19 21:30N 25°46' W 080°09'0 0.0
2018-Apr-19 21:00N 25°46' W 080°09'0 0.0
2018-Apr-19 20:30N 25°46' W 080°09'0 0.0
2018-Apr-19 20:00N 25°46' W 080°09'0 0.0
2018-Apr-19 19:30N 25°46' W 080°09'0 0.0
2018-Apr-19 19:00N 25°46' W 080°09'0 0.0
2018-Apr-19 18:27N 25°46' W 080°09'0 0.0
2018-Apr-19 18:00N 25°46' W 080°09'1 1.4
2018-Apr-19 17:30N 25°46' W 080°08'4 8.2
2018-Apr-19 17:00N 25°47' W 080°04'3 6.4
2018-Apr-19 16:30N 25°49' W 080°01'714.0
2018-Apr-19 16:00N 25°55' W 079°57'714.3
2018-Apr-19 15:31N 26°02' W 079°57'714.6
2018-Apr-19 15:00N 26°09' W 079°56'714.8
2018-Apr-19 14:30N 26°17' W 079°55'714.9
2018-Apr-19 14:00N 26°24' W 079°54'714.6
2018-Apr-19 13:31N 26°31' W 079°53'1614.6
2018-Apr-19 12:27N 26°47' W 079°52'614.6
2018-Apr-19 12:01N 26°53' W 079°51'714.5
2018-Apr-19 11:31N 27°00' W 079°50'815.0
2018-Apr-19 11:00N 27°08' W 079°51'1715.2
2018-Apr-19 09:53N 27°25' W 079°54'715.2
2018-Apr-19 09:26N 27°32' W 079°55'915.7
2018-Apr-19 08:51N 27°41' W 079°56'516.2
2018-Apr-19 08:30N 27°46' W 079°57'6315.9
2018-Apr-19 04:32N 28°48' W 080°09'216.7
2018-Apr-19 04:24N 28°51' W 080°09'716.8
2018-Apr-19 03:58N 28°58' W 080°10'817.1
2018-Apr-19 03:30N 29°06' W 080°11'1016.9
2018-Apr-19 02:55N 29°15' W 080°12'716.4
2018-Apr-19 02:30N 29°22' W 080°13'2416.4
2018-Apr-19 01:02N 29°46' W 080°15'516.2
2018-Apr-19 00:45N 29°51' W 080°16'416.1
2018-Apr-19 00:31N 29°55' W 080°16'816.1
2018-Apr-19 00:01N 30°03' W 080°17'7416.0
2018-Apr-18 19:21N 31°17' W 080°22'616.8
2018-Apr-18 19:00N 31°23' W 080°21'816.9
2018-Apr-18 18:30N 31°31' W 080°20'816.8
2018-Apr-18 18:00N 31°39' W 080°17'816.8
2018-Apr-18 17:30N 31°47' W 080°14'815.3
2018-Apr-18 16:59N 31°55' W 080°16'1012.1
2018-Apr-18 16:10N 31°57' W 080°28'2 9.5
2018-Apr-18 15:58N 31°57' W 080°30'4 9.4
2018-Apr-18 15:30N 31°57' W 080°35'5 9.2
2018-Apr-18 15:00N 31°57' W 080°41'510.8
2018-Apr-18 14:30N 31°59' W 080°46'612.0
2018-Apr-18 14:00N 32°02' W 080°53'5 9.2
2018-Apr-18 13:30N 32°04' W 080°57'3 6.0
2018-Apr-18 13:00N 32°06' W 081°00'3 6.6
2018-Apr-18 12:30N 32°05' W 081°04'3 5.1
2018-Apr-18 12:00N 32°06' W 081°07'2 3.8
2018-Apr-18 11:27N 32°08' W 081°08'0 0.0
2018-Apr-18 10:57N 32°08' W 081°08'0 0.0
2018-Apr-18 10:27N 32°08' W 081°08'0 0.0
2018-Apr-18 09:57N 32°08' W 081°08'0 0.0
2018-Apr-18 09:21N 32°08' W 081°08'0 0.0
2018-Apr-18 08:57N 32°08' W 081°08'0 0.0
2018-Apr-18 08:27N 32°08' W 081°08'0 0.0
2018-Apr-18 07:57N 32°08' W 081°08'0 0.0
2018-Apr-18 07:27N 32°08' W 081°08'0 0.0
2018-Apr-18 06:57N 32°08' W 081°08'0 0.0
2018-Apr-18 06:27N 32°08' W 081°08'0 0.0
2018-Apr-18 05:51N 32°08' W 081°08'0 0.0
2018-Apr-18 05:21N 32°08' W 081°08'0 0.0
2018-Apr-18 04:57N 32°08' W 081°08'0 0.0
2018-Apr-18 04:27N 32°08' W 081°08'0 0.0
2018-Apr-18 03:57N 32°08' W 081°08'0 0.0
2018-Apr-18 03:27N 32°08' W 081°08'0 0.0
2018-Apr-18 02:57N 32°08' W 081°08'0 0.0
2018-Apr-18 02:27N 32°08' W 081°08'0 0.0
2018-Apr-18 01:57N 32°08' W 081°08'0 0.0
2018-Apr-18 01:27N 32°08' W 081°08'0 0.0
2018-Apr-18 00:57N 32°08' W 081°08'0 0.0
2018-Apr-18 00:27N 32°08' W 081°08'0 0.0
2018-Apr-17 23:57N 32°08' W 081°08'0 0.0
2018-Apr-17 23:27N 32°08' W 081°08'0 0.0
2018-Apr-17 22:57N 32°08' W 081°08'0 0.0
2018-Apr-17 22:21N 32°08' W 081°08'0 0.0
2018-Apr-17 21:57N 32°08' W 081°08'0 0.0
2018-Apr-17 21:27N 32°08' W 081°08'0 0.0
2018-Apr-17 20:57N 32°08' W 081°08'0 0.0
2018-Apr-17 20:27N 32°08' W 081°08'0 0.0
2018-Apr-17 19:57N 32°08' W 081°08'0 0.0
2018-Apr-17 19:27N 32°08' W 081°08'0 0.0
2018-Apr-17 18:51N 32°08' W 081°08'0 0.0
2018-Apr-17 18:27N 32°08' W 081°08'0 0.0
2018-Apr-17 17:45N 32°08' W 081°08'0 0.0
2018-Apr-17 17:27N 32°08' W 081°08'0 0.0
2018-Apr-17 16:57N 32°08' W 081°08'0 0.0
2018-Apr-17 16:27N 32°08' W 081°08'0 0.9
2018-Apr-17 16:01N 32°08' W 081°08'2 3.5
2018-Apr-17 15:30N 32°06' W 081°07'2 5.0
2018-Apr-17 15:00N 32°05' W 081°05'3 6.2
2018-Apr-17 14:30N 32°05' W 081°01'4 8.2
2018-Apr-17 14:00N 32°04' W 080°57'510.4
2018-Apr-17 13:30N 32°02' W 080°51'713.6
2018-Apr-17 13:00N 31°58' W 080°44'510.1
2018-Apr-17 12:30N 31°57' W 080°39'3 5.3
2018-Apr-17 12:00N 31°56' W 080°36'3 5.2
2018-Apr-17 11:30N 31°57' W 080°33'3 6.7
2018-Apr-17 11:00N 31°58' W 080°29'4 7.3
2018-Apr-17 10:30N 31°58' W 080°25'37011.0
2018-Apr-16 00:59N 36°52' W 075°53'5 9.8
2018-Apr-16 00:30N 36°55' W 075°57'4 8.7
2018-Apr-16 00:00N 36°57' W 076°02'714.7
2018-Apr-15 23:31N 36°59' W 076°10'812.9
2018-Apr-15 22:54N 36°58' W 076°20'4 8.8
2018-Apr-15 22:30N 36°55' W 076°20'3 5.9
2018-Apr-15 22:00N 36°52' W 076°19'0 0.7
2018-Apr-15 21:29N 36°51' W 076°19'0 0.0
2018-Apr-15 20:59N 36°51' W 076°19'0 0.0
2018-Apr-15 20:29N 36°51' W 076°19'0 0.0
2018-Apr-15 19:59N 36°51' W 076°19'0 0.0
2018-Apr-15 19:29N 36°51' W 076°19'0 0.0
2018-Apr-15 18:59N 36°51' W 076°19'0 0.0
2018-Apr-15 18:29N 36°51' W 076°19'0 0.0
2018-Apr-15 17:59N 36°51' W 076°19'0 0.0
2018-Apr-15 17:29N 36°51' W 076°19'0 0.0
2018-Apr-15 16:53N 36°51' W 076°19'0 0.0
2018-Apr-15 16:26N 36°51' W 076°19'0 0.0
2018-Apr-15 15:59N 36°51' W 076°19'0 0.0
2018-Apr-15 15:29N 36°51' W 076°19'0 0.0
2018-Apr-15 14:59N 36°51' W 076°19'0 0.0
2018-Apr-15 14:26N 36°51' W 076°19'0 0.0
2018-Apr-15 13:59N 36°51' W 076°19'0 0.0
2018-Apr-15 13:29N 36°51' W 076°19'0 0.0
2018-Apr-15 12:59N 36°51' W 076°19'0 0.0
2018-Apr-15 12:29N 36°51' W 076°19'0 0.0
2018-Apr-15 11:56N 36°51' W 076°19'0 0.0
2018-Apr-15 11:29N 36°51' W 076°19'0 0.0
2018-Apr-15 10:59N 36°51' W 076°19'0 0.0
2018-Apr-15 10:29N 36°51' W 076°19'0 0.0
2018-Apr-15 10:00N 36°51' W 076°19'0 0.7
2018-Apr-15 09:30N 36°52' W 076°19'3 6.2
2018-Apr-15 09:00N 36°55' W 076°20'5 9.3
2018-Apr-15 08:27N 36°60' W 076°18'714.9
2018-Apr-15 07:58N 36°59' W 076°09'715.8
2018-Apr-15 07:31N 36°57' W 076°01'4 8.6
2018-Apr-15 07:01N 36°56' W 075°55'3 6.1
2018-Apr-15 06:31N 36°54' W 075°53'3 6.8
2018-Apr-15 06:01N 36°52' W 075°49'18713.4
2018-Apr-14 16:06N 39°35' W 073°52'519.3
2018-Apr-14 15:49N 39°40' W 073°52'819.3
2018-Apr-14 15:25N 39°48' W 073°52'3513.5
2018-Apr-14 12:51N 40°22' W 073°49'3 9.7
2018-Apr-14 12:30N 40°26' W 073°49'4 8.0
2018-Apr-14 12:00N 40°28' W 073°53'510.2
2018-Apr-14 11:30N 40°31' W 073°59'612.1
2018-Apr-14 11:00N 40°36' W 074°03'4 7.4
2018-Apr-14 10:30N 40°39' W 074°06'2 4.5
2018-Apr-14 10:00N 40°39' W 074°09'2 3.3
2018-Apr-14 09:30N 40°41' W 074°09'0 0.1
2018-Apr-14 09:00N 40°41' W 074°09'0 0.0
2018-Apr-14 08:30N 40°41' W 074°09'0 0.0
2018-Apr-14 08:00N 40°41' W 074°09'0 0.0
2018-Apr-14 07:30N 40°41' W 074°09'0 0.0
2018-Apr-14 07:00N 40°41' W 074°09'0 0.0
2018-Apr-14 06:30N 40°41' W 074°09'0 0.0
2018-Apr-14 06:00N 40°41' W 074°09'0 0.0
2018-Apr-14 05:30N 40°41' W 074°09'0 0.0
2018-Apr-14 05:00N 40°41' W 074°09'0 0.0
2018-Apr-14 04:30N 40°41' W 074°09'0 0.0
2018-Apr-14 04:00N 40°41' W 074°09'0 0.0
2018-Apr-14 03:30N 40°41' W 074°09'0 0.0
2018-Apr-14 03:00N 40°41' W 074°09'0 0.0
2018-Apr-14 02:30N 40°41' W 074°09'0 0.0
2018-Apr-14 02:00N 40°41' W 074°09'0 0.0
2018-Apr-14 01:30N 40°41' W 074°09'0 0.0
2018-Apr-14 01:00N 40°41' W 074°09'0 0.0
2018-Apr-14 00:30N 40°41' W 074°09'0 0.0
2018-Apr-14 00:00N 40°41' W 074°09'0 0.0
2018-Apr-13 23:30N 40°41' W 074°09'0 0.0
2018-Apr-13 23:00N 40°41' W 074°09'0 0.0
2018-Apr-13 22:30N 40°41' W 074°09'0 0.0
2018-Apr-13 22:00N 40°41' W 074°09'0 0.0
2018-Apr-13 21:30N 40°41' W 074°09'0 0.0
2018-Apr-13 21:00N 40°41' W 074°09'0 0.0
2018-Apr-13 20:30N 40°41' W 074°09'0 0.0
2018-Apr-13 20:00N 40°41' W 074°09'0 0.0
2018-Apr-13 19:30N 40°41' W 074°09'0 0.0
2018-Apr-13 18:57N 40°41' W 074°09'0 0.0
2018-Apr-13 18:30N 40°41' W 074°09'0 0.0
2018-Apr-13 18:00N 40°41' W 074°09'0 0.0
2018-Apr-13 17:30N 40°41' W 074°09'0 0.0
2018-Apr-13 17:00N 40°41' W 074°09'0 0.0
2018-Apr-13 16:30N 40°41' W 074°09'0 0.0
2018-Apr-13 16:00N 40°41' W 074°09'0 0.0
2018-Apr-13 15:30N 40°41' W 074°09'0 0.0
2018-Apr-13 15:00N 40°41' W 074°09'0 0.0
2018-Apr-13 14:30N 40°41' W 074°09'0 0.0
2018-Apr-13 14:00N 40°41' W 074°09'0 0.0
2018-Apr-13 13:30N 40°41' W 074°09'0 0.0
2018-Apr-13 13:00N 40°41' W 074°09'0 0.0
2018-Apr-13 12:30N 40°41' W 074°09'0 0.0
2018-Apr-13 12:00N 40°41' W 074°09'0 0.0
2018-Apr-13 11:30N 40°41' W 074°09'0 0.0
2018-Apr-13 11:00N 40°41' W 074°09'0 0.0
2018-Apr-13 10:30N 40°41' W 074°09'0 0.0
2018-Apr-13 10:00N 40°41' W 074°09'1 1.3
2018-Apr-13 09:30N 40°40' W 074°08'2 3.5
2018-Apr-13 09:00N 40°39' W 074°07'3 6.4
2018-Apr-13 08:30N 40°38' W 074°03'5 9.1
2018-Apr-13 08:01N 40°33' W 074°02'611.6
2018-Apr-13 07:30N 40°30' W 073°56'5 9.5
2018-Apr-13 07:00N 40°28' W 073°50'3 6.9
2018-Apr-13 06:30N 40°27' W 073°45'5 9.4
2018-Apr-13 06:00N 40°28' W 073°39'5 9.5
2018-Apr-13 05:29N 40°28' W 073°33'4 9.2
2018-Apr-13 05:00N 40°28' W 073°27'  

Dump ship's entire track history